Аэропорт: Храброво. Калининград

ICAO: UMKK

METAR:
2021-04-21 20:00:00
UMKK 212000Z 26005MPS CAVOK 07/02 Q1008 R24/CLRD95 NOSIG RMK QFE755/1007
METAR:
2021-04-21 16:54:00
TAF UMKK 211654Z 2118/2218 29007G13MPS 9999 SCT030 TEMPO 2118/2122 FEW009 SCT016CB BECMG 2119/2121 23005G12MPS FM220500 23010G17MPS 6000 -RA BKN016 TEMPO 2205/2212 27012G20MPS 3100 -SHRAGS FEW006 BKN016CB FM221200 27010G17MPS 6000 -SHRA BKN016CB TEMPO 2212/2218 -SHSNRA